createdAt,value
2022-10-12T00:00:45.322Z,3.00
2022-10-12T00:03:13.284Z,2.08
2022-10-12T00:05:40.227Z,3.30
2022-10-12T00:08:07.021Z,4.10
2022-10-12T00:10:33.908Z,4.38
2022-10-12T00:13:01.168Z,5.15
2022-10-12T00:15:27.790Z,2.00
2022-10-12T00:17:54.400Z,2.53
2022-10-12T00:20:21.088Z,2.60
2022-10-12T00:22:47.700Z,2.22
2022-10-12T00:25:14.467Z,2.13
2022-10-12T00:27:41.039Z,3.45
2022-10-12T00:30:08.345Z,1.77
2022-10-12T00:32:34.954Z,2.25
2022-10-12T00:35:01.558Z,2.70
2022-10-12T00:37:28.167Z,1.80
2022-10-12T00:39:54.753Z,3.90
2022-10-12T00:42:21.332Z,2.30
2022-10-12T00:44:50.067Z,2.58
2022-10-12T00:47:23.313Z,2.13
2022-10-12T00:50:01.456Z,2.17
2022-10-12T00:53:02.258Z,2.20
2022-10-12T00:55:33.610Z,1.63
2022-10-12T00:58:01.057Z,2.85
2022-10-12T01:00:27.687Z,1.73
2022-10-12T01:02:55.080Z,2.55
2022-10-12T01:05:22.910Z,1.75
2022-10-12T01:07:49.906Z,2.30
2022-10-12T01:10:17.043Z,2.15
2022-10-12T01:12:46.599Z,2.20
2022-10-12T01:15:13.789Z,2.20
2022-10-12T01:18:02.546Z,1.65
2022-10-12T01:20:52.221Z,3.37
2022-10-12T01:23:25.043Z,2.40
2022-10-12T01:26:37.093Z,1.75
2022-10-12T01:29:28.353Z,2.08
2022-10-12T01:32:16.620Z,2.03
2022-10-12T01:35:25.402Z,2.25
2022-10-12T01:37:57.993Z,2.33
2022-10-12T01:40:33.479Z,1.70
2022-10-12T01:43:00.471Z,2.92
2022-10-12T01:45:27.205Z,2.25
2022-10-12T01:47:55.166Z,2.00
2022-10-12T01:50:25.062Z,4.50
2022-10-12T01:53:33.513Z,1.70
2022-10-12T01:56:18.491Z,2.22
2022-10-12T01:58:54.332Z,1.75
2022-10-12T02:01:52.970Z,1.65
2022-10-12T02:04:42.695Z,1.90
2022-10-12T02:09:39.923Z,2.70
2022-10-12T02:12:21.020Z,2.17
2022-10-12T02:14:52.758Z,2.40
2022-10-12T02:17:22.742Z,2.30
2022-10-12T02:19:57.390Z,2.10
2022-10-12T02:22:28.173Z,2.40
2022-10-12T02:24:58.193Z,3.30
2022-10-12T02:27:26.583Z,1.95
2022-10-12T02:29:53.661Z,2.42
2022-10-12T02:32:50.372Z,1.88
2022-10-12T02:35:23.023Z,2.15
2022-10-12T02:38:00.444Z,1.85
2022-10-12T02:40:37.654Z,2.10
2022-10-12T02:43:15.639Z,3.35
2022-10-12T02:45:46.202Z,3.33
2022-10-12T02:48:21.294Z,2.10
2022-10-12T02:50:49.901Z,1.95
2022-10-12T02:53:17.469Z,2.40
2022-10-12T02:55:52.609Z,2.00
2022-10-12T02:58:19.841Z,2.00
2022-10-12T03:00:46.834Z,4.15
2022-10-12T03:03:13.628Z,4.07
2022-10-12T03:05:40.244Z,2.75
2022-10-12T03:08:06.837Z,2.50
2022-10-12T03:10:33.433Z,2.05
2022-10-12T03:13:00.065Z,2.80
2022-10-12T03:15:26.812Z,2.72
2022-10-12T03:17:53.447Z,2.03
2022-10-12T03:20:20.187Z,1.83
2022-10-12T03:22:46.934Z,2.30
2022-10-12T03:25:13.676Z,2.28
2022-10-12T03:27:40.658Z,3.08
2022-10-12T03:30:08.331Z,2.30
2022-10-12T03:32:34.913Z,3.70
2022-10-12T03:35:01.547Z,1.55
2022-10-12T03:37:28.598Z,2.17
2022-10-12T03:39:55.201Z,1.77
2022-10-12T03:42:21.805Z,2.28
2022-10-12T03:44:48.417Z,1.85
2022-10-12T03:47:15.019Z,2.13
2022-10-12T03:49:41.694Z,2.17
2022-10-12T03:52:08.538Z,2.20
2022-10-12T03:54:35.386Z,1.92
2022-10-12T03:57:02.016Z,1.90
2022-10-12T03:59:28.660Z,2.22
2022-10-12T04:01:55.378Z,2.33
2022-10-12T04:04:22.034Z,2.00
2022-10-12T04:06:48.634Z,2.05
2022-10-12T04:09:15.311Z,3.15
2022-10-12T04:11:41.863Z,2.15
2022-10-12T04:14:08.578Z,2.50
2022-10-12T04:16:35.168Z,2.38
2022-10-12T04:19:01.818Z,2.15
2022-10-12T04:21:31.155Z,2.33
2022-10-12T04:23:57.745Z,1.92
2022-10-12T04:26:24.448Z,2.50
2022-10-12T04:28:51.140Z,2.22
2022-10-12T04:31:17.762Z,1.95
2022-10-12T04:33:44.462Z,1.70
2022-10-12T04:36:11.087Z,2.50
2022-10-12T04:38:37.748Z,2.28
2022-10-12T04:41:04.479Z,2.55
2022-10-12T04:43:31.212Z,2.22
2022-10-12T04:45:59.677Z,2.30
2022-10-12T04:48:27.040Z,2.80
2022-10-12T04:50:53.691Z,1.80
2022-10-12T04:53:20.379Z,2.83
2022-10-12T04:55:47.085Z,3.45
2022-10-12T04:58:14.075Z,2.80
2022-10-12T05:00:40.958Z,2.88
2022-10-12T05:03:07.776Z,2.70
2022-10-12T05:05:36.084Z,2.55
2022-10-12T05:08:03.871Z,4.03
2022-10-12T05:10:30.697Z,2.70
2022-10-12T05:12:57.368Z,8.35
2022-10-12T05:15:24.141Z,6.88
2022-10-12T05:17:50.919Z,4.65
2022-10-12T05:20:17.649Z,2.63
2022-10-12T05:22:44.306Z,2.55
2022-10-12T05:25:10.931Z,5.15
2022-10-12T05:27:37.789Z,3.40
2022-10-12T05:30:06.064Z,3.88
2022-10-12T05:32:32.700Z,2.88
2022-10-12T05:34:59.311Z,3.38
2022-10-12T05:38:16.315Z,3.17
2022-10-12T05:41:32.976Z,3.65
2022-10-12T05:43:59.680Z,3.92
2022-10-12T05:46:26.503Z,3.60
2022-10-12T05:48:53.140Z,4.57
2022-10-12T05:51:19.822Z,3.80
2022-10-12T05:53:46.608Z,3.42
2022-10-12T05:56:13.237Z,3.40
2022-10-12T05:58:39.940Z,3.17
2022-10-12T06:01:12.674Z,3.53
2022-10-12T06:03:39.571Z,4.75
2022-10-12T06:06:07.204Z,4.05
2022-10-12T06:08:34.566Z,4.13
2022-10-12T06:11:01.316Z,4.55
2022-10-12T06:13:27.961Z,3.90
2022-10-12T06:15:54.997Z,3.50
2022-10-12T06:18:21.686Z,3.85
2022-10-12T06:20:56.506Z,4.28
2022-10-12T06:23:35.658Z,4.60
2022-10-12T06:26:02.560Z,4.20
2022-10-12T06:28:29.285Z,3.92
2022-10-12T06:31:00.172Z,3.63
2022-10-12T06:33:27.425Z,4.13
2022-10-12T06:35:54.938Z,3.63
2022-10-12T06:38:21.911Z,4.20
2022-10-12T06:40:48.728Z,3.60
2022-10-12T06:43:15.378Z,3.60
2022-10-12T06:45:42.110Z,4.05
2022-10-12T06:48:08.805Z,4.68
2022-10-12T06:50:35.685Z,3.40
2022-10-12T06:53:02.294Z,3.80
2022-10-12T06:55:29.609Z,3.63
2022-10-12T06:57:56.652Z,3.75
2022-10-12T07:00:23.305Z,4.00
2022-10-12T07:02:50.636Z,3.00
2022-10-12T07:05:17.786Z,3.75
2022-10-12T07:07:44.585Z,2.95
2022-10-12T07:10:11.304Z,3.25
2022-10-12T07:12:38.829Z,3.47
2022-10-12T07:15:06.985Z,2.92
2022-10-12T07:17:33.852Z,3.72
2022-10-12T07:20:00.584Z,3.28
2022-10-12T07:22:27.549Z,2.95
2022-10-12T07:24:54.232Z,3.28
2022-10-12T07:27:21.011Z,2.70
2022-10-12T07:29:47.603Z,3.22
2022-10-12T07:32:14.247Z,3.85
2022-10-12T07:34:42.459Z,3.03
2022-10-12T07:37:09.099Z,3.40
2022-10-12T07:39:35.775Z,3.15
2022-10-12T07:42:02.384Z,5.82
2022-10-12T07:44:30.454Z,3.60
2022-10-12T07:46:57.051Z,3.40
2022-10-12T07:49:23.788Z,3.15
2022-10-12T07:51:50.395Z,3.53
2022-10-12T07:54:21.043Z,3.75
2022-10-12T07:56:48.775Z,3.35
2022-10-12T07:59:15.404Z,3.42
2022-10-12T08:01:42.125Z,3.15
2022-10-12T08:04:10.163Z,3.42
2022-10-12T08:06:37.050Z,3.60
2022-10-12T08:09:04.745Z,2.97
2022-10-12T08:11:31.656Z,3.25
2022-10-12T08:13:58.255Z,3.83
2022-10-12T08:16:24.901Z,3.88
2022-10-12T08:18:51.941Z,3.80
2022-10-12T08:21:19.161Z,4.03
2022-10-12T08:23:46.234Z,3.83
2022-10-12T08:26:14.669Z,4.05
2022-10-12T08:28:41.935Z,3.10
2022-10-12T08:31:14.102Z,3.28
2022-10-12T08:33:40.855Z,3.60
2022-10-12T08:36:08.682Z,3.60
2022-10-12T08:38:40.232Z,3.60
2022-10-12T08:41:28.283Z,3.72
2022-10-12T08:44:00.864Z,4.22
2022-10-12T08:46:28.931Z,4.95
2022-10-12T08:49:07.570Z,4.45
2022-10-12T08:51:45.873Z,4.25
2022-10-12T08:54:14.445Z,4.60
2022-10-12T08:56:41.410Z,4.32
2022-10-12T08:59:17.411Z,4.30
2022-10-12T09:02:02.892Z,3.97
2022-10-12T09:04:44.649Z,3.78
2022-10-12T09:07:51.067Z,4.25
2022-10-12T09:10:35.549Z,3.90
2022-10-12T09:13:10.369Z,4.30
2022-10-12T09:16:02.115Z,4.63
2022-10-12T09:18:41.440Z,5.38
2022-10-12T09:21:17.510Z,8.00
2022-10-12T09:23:44.881Z,5.60
2022-10-12T09:26:26.032Z,6.63
2022-10-12T09:28:55.573Z,5.63
2022-10-12T09:34:07.054Z,7.75
2022-10-12T09:36:39.530Z,7.45
2022-10-12T09:39:22.637Z,8.07
2022-10-12T09:41:52.347Z,7.07
2022-10-12T09:44:24.783Z,10.13
2022-10-12T09:46:58.734Z,9.30
2022-10-12T09:49:50.292Z,7.78
2022-10-12T09:52:42.382Z,8.40
2022-10-12T09:55:15.858Z,8.63
2022-10-12T09:57:51.759Z,7.38
2022-10-12T10:00:27.673Z,7.07
2022-10-12T10:02:55.825Z,7.82
2022-10-12T10:05:35.838Z,8.90
2022-10-12T10:08:18.395Z,9.52
2022-10-12T10:10:53.074Z,8.55
2022-10-12T10:13:23.522Z,9.95
2022-10-12T10:15:52.264Z,9.88
2022-10-12T10:18:25.687Z,8.20
2022-10-12T10:20:55.891Z,8.25
2022-10-12T10:23:29.100Z,9.40
2022-10-12T10:26:02.475Z,9.27
2022-10-12T10:28:32.657Z,8.70
2022-10-12T10:31:05.588Z,9.18
2022-10-12T10:33:35.321Z,9.48
2022-10-12T10:36:23.122Z,9.90
2022-10-12T10:39:06.686Z,9.38
2022-10-12T10:41:38.944Z,9.90
2022-10-12T10:44:21.775Z,9.23
2022-10-12T10:46:48.825Z,8.90
2022-10-12T10:49:47.015Z,8.50
2022-10-12T10:52:28.693Z,9.10
2022-10-12T10:55:10.395Z,8.32
2022-10-12T10:57:41.493Z,6.72
2022-10-12T11:03:12.986Z,7.82
2022-10-12T11:05:52.408Z,9.02
2022-10-12T11:08:25.651Z,8.80
2022-10-12T11:11:04.561Z,8.85
2022-10-12T11:13:55.442Z,9.13
2022-10-12T11:16:42.460Z,8.13
2022-10-12T11:19:18.222Z,9.43
2022-10-12T11:21:57.882Z,8.88
2022-10-12T11:24:45.747Z,9.30
2022-10-12T11:27:27.802Z,8.32
2022-10-12T11:30:08.964Z,7.65
2022-10-12T11:32:41.470Z,9.23
2022-10-12T11:35:16.310Z,8.00
2022-10-12T11:37:47.580Z,7.80
2022-10-12T11:41:02.639Z,8.32
2022-10-12T11:45:47.177Z,8.02
2022-10-12T11:48:27.639Z,8.68
2022-10-12T11:50:59.982Z,7.78
2022-10-12T11:53:45.012Z,8.85
2022-10-12T11:56:17.474Z,11.27
2022-10-12T11:59:00.692Z,9.25
2022-10-12T12:01:48.627Z,11.02
2022-10-12T12:07:42.102Z,10.50
2022-10-12T12:10:26.720Z,9.90
2022-10-12T12:13:12.903Z,9.27
2022-10-12T12:15:41.725Z,9.77
2022-10-12T12:18:14.943Z,9.55
2022-10-12T12:20:44.357Z,8.98
2022-10-12T12:23:37.653Z,8.95
2022-10-12T12:26:15.752Z,7.80
2022-10-12T12:28:48.005Z,9.07
2022-10-12T12:31:25.061Z,8.80
2022-10-12T12:34:13.536Z,7.45
2022-10-12T12:36:44.897Z,8.23
2022-10-12T12:39:32.877Z,6.70
2022-10-12T12:42:03.004Z,6.80
2022-10-12T12:44:40.574Z,7.80
2022-10-12T12:47:26.505Z,8.27
2022-10-12T12:49:57.359Z,8.73
2022-10-12T12:52:38.439Z,7.50
2022-10-12T12:55:14.365Z,9.40
2022-10-12T12:57:59.588Z,8.10
2022-10-12T13:00:39.429Z,8.23
2022-10-12T13:03:28.072Z,8.57
2022-10-12T13:06:24.128Z,8.80
2022-10-12T13:09:02.549Z,7.65
2022-10-12T13:11:50.517Z,9.70
2022-10-12T13:14:54.576Z,8.57
2022-10-12T13:17:45.946Z,9.20
2022-10-12T13:20:15.363Z,9.00
2022-10-12T13:22:42.349Z,9.07
2022-10-12T13:25:16.871Z,9.50
2022-10-12T13:27:48.471Z,8.93
2022-10-12T13:30:43.419Z,8.35
2022-10-12T13:33:10.050Z,10.30
2022-10-12T13:35:43.254Z,11.75
2022-10-12T13:38:15.737Z,9.98
2022-10-12T13:41:02.851Z,9.93
2022-10-12T13:43:59.692Z,10.73
2022-10-12T13:46:44.554Z,10.88
2022-10-12T13:49:20.216Z,10.52
2022-10-12T13:51:53.002Z,10.68
2022-10-12T13:54:24.869Z,11.32
2022-10-12T13:56:59.089Z,9.60
2022-10-12T13:59:28.742Z,9.00
2022-10-12T14:02:00.611Z,10.77
2022-10-12T14:04:30.250Z,12.25
2022-10-12T14:09:28.246Z,9.88
2022-10-12T14:11:56.159Z,11.77
2022-10-12T14:14:33.574Z,12.38
2022-10-12T14:17:00.687Z,11.60
2022-10-12T14:19:44.991Z,12.52
2022-10-12T14:22:18.810Z,11.85
2022-10-12T14:24:45.546Z,11.57
2022-10-12T14:27:27.628Z,9.88
2022-10-12T14:30:04.124Z,10.45
2022-10-12T14:32:41.040Z,11.65
2022-10-12T14:35:20.935Z,10.43
2022-10-12T14:37:48.814Z,11.07
2022-10-12T14:40:29.379Z,12.80
2022-10-12T14:43:23.930Z,10.95
2022-10-12T14:45:51.937Z,11.88
2022-10-12T14:48:23.407Z,11.32
2022-10-12T14:50:50.997Z,12.07
2022-10-12T14:53:17.677Z,11.30
2022-10-12T14:55:44.871Z,11.48
2022-10-12T14:58:15.878Z,12.32
2022-10-12T15:00:43.508Z,12.35
2022-10-12T15:03:10.490Z,11.98
2022-10-12T15:05:37.259Z,12.50
2022-10-12T15:08:07.446Z,13.70
2022-10-12T15:10:35.311Z,15.57
2022-10-12T15:13:02.071Z,12.82
2022-10-12T15:15:40.367Z,12.65
2022-10-12T15:18:07.312Z,13.60
2022-10-12T15:20:35.353Z,12.18
2022-10-12T15:23:03.076Z,13.10
2022-10-12T15:25:35.405Z,12.80
2022-10-12T15:28:03.536Z,13.15
2022-10-12T15:30:30.509Z,12.98
2022-10-12T15:32:57.138Z,13.05
2022-10-12T15:35:26.776Z,10.73
2022-10-12T15:40:23.268Z,12.43
2022-10-12T15:42:50.159Z,10.55
2022-10-12T15:45:30.853Z,10.90
2022-10-12T15:47:57.486Z,10.65
2022-10-12T15:50:29.251Z,11.38
2022-10-12T15:52:57.067Z,11.18
2022-10-12T15:55:30.032Z,10.20
2022-10-12T15:57:57.853Z,12.52
2022-10-12T16:00:27.223Z,10.63
2022-10-12T16:02:55.679Z,10.65
2022-10-12T16:05:46.171Z,10.70
2022-10-12T16:08:12.926Z,10.75
2022-10-12T16:10:41.462Z,10.68
2022-10-12T16:13:11.802Z,10.25
2022-10-12T16:15:38.726Z,11.20
2022-10-12T16:18:06.286Z,9.90
2022-10-12T16:20:37.125Z,10.30
2022-10-12T16:23:06.394Z,11.63
2022-10-12T16:25:34.304Z,10.82
2022-10-12T16:28:00.964Z,10.75
2022-10-12T16:30:27.766Z,11.32
2022-10-12T16:32:54.396Z,12.70
2022-10-12T16:35:21.136Z,13.15
2022-10-12T16:37:47.982Z,11.20
2022-10-12T16:40:15.765Z,13.18
2022-10-12T16:42:42.800Z,11.88
2022-10-12T16:45:10.370Z,11.18
2022-10-12T16:47:42.897Z,12.18
2022-10-12T16:50:10.093Z,10.68
2022-10-12T16:52:36.776Z,11.10
2022-10-12T16:55:04.304Z,11.27
2022-10-12T16:57:31.151Z,10.80
2022-10-12T16:59:58.660Z,12.45
2022-10-12T17:02:27.284Z,10.48
2022-10-12T17:04:54.021Z,11.70
2022-10-12T17:07:21.176Z,15.75
2022-10-12T17:09:47.896Z,16.05
2022-10-12T17:12:14.983Z,13.80
2022-10-12T17:14:41.879Z,13.02
2022-10-12T17:17:08.817Z,13.02
2022-10-12T17:19:39.920Z,14.68
2022-10-12T17:22:09.943Z,12.88
2022-10-12T17:24:38.597Z,12.30
2022-10-12T17:27:07.474Z,13.60
2022-10-12T17:29:39.450Z,15.90
2022-10-12T17:32:07.015Z,14.20
2022-10-12T17:34:36.164Z,11.95
2022-10-12T17:37:04.099Z,13.05
2022-10-12T17:39:33.803Z,13.48
2022-10-12T17:44:27.171Z,14.57
2022-10-12T17:46:53.879Z,14.07
2022-10-12T17:49:24.661Z,11.90
2022-10-12T17:51:51.805Z,12.63
2022-10-12T17:54:19.473Z,12.13
2022-10-12T17:56:46.397Z,12.82
2022-10-12T17:59:19.485Z,12.75
2022-10-12T18:01:47.366Z,11.68
2022-10-12T18:04:14.315Z,13.30
2022-10-12T18:06:41.642Z,12.07
2022-10-12T18:09:09.267Z,14.20
2022-10-12T18:11:37.475Z,13.43
2022-10-12T18:14:04.246Z,13.82
2022-10-12T18:16:33.747Z,13.30
2022-10-12T18:19:02.158Z,18.48
2022-10-12T18:21:30.915Z,15.50
2022-10-12T18:23:57.507Z,24.98
2022-10-12T18:26:24.920Z,20.10
2022-10-12T18:28:53.363Z,19.20
2022-10-12T18:31:24.691Z,17.77
2022-10-12T18:33:52.762Z,20.20
2022-10-12T18:36:20.204Z,14.75
2022-10-12T18:38:47.583Z,13.98
2022-10-12T18:41:17.425Z,14.45
2022-10-12T18:43:44.525Z,15.20
2022-10-12T18:46:13.991Z,14.73
2022-10-12T18:48:41.048Z,14.15
2022-10-12T18:51:20.238Z,16.17
2022-10-12T18:53:46.994Z,14.57
2022-10-12T18:56:13.776Z,16.60
2022-10-12T18:58:41.925Z,17.30
2022-10-12T19:01:15.437Z,15.80
2022-10-12T19:03:42.423Z,16.92
2022-10-12T19:06:12.330Z,15.73
2022-10-12T19:08:39.464Z,20.08
2022-10-12T19:11:08.245Z,18.45
2022-10-12T19:13:36.409Z,14.93
2022-10-12T19:16:14.951Z,15.02
2022-10-12T19:18:42.278Z,15.20
2022-10-12T19:21:11.864Z,15.10
2022-10-12T19:23:38.941Z,14.50
2022-10-12T19:26:08.479Z,17.13
2022-10-12T19:28:35.509Z,15.63
2022-10-12T19:31:08.156Z,13.68
2022-10-12T19:33:34.756Z,15.80
2022-10-12T19:36:05.747Z,16.02
2022-10-12T19:38:32.891Z,16.58
2022-10-12T19:40:59.515Z,16.70
2022-10-12T19:43:26.477Z,16.02
2022-10-12T19:45:53.436Z,18.45
2022-10-12T19:48:20.163Z,15.70
2022-10-12T19:50:46.739Z,18.10
2022-10-12T19:53:13.431Z,20.45
2022-10-12T19:55:40.084Z,15.55
2022-10-12T19:58:07.624Z,19.90
2022-10-12T20:00:36.063Z,19.55
2022-10-12T20:03:03.525Z,16.55
2022-10-12T20:05:30.084Z,22.67
2022-10-12T20:07:56.745Z,21.42
2022-10-12T20:10:23.506Z,18.67
2022-10-12T20:12:50.247Z,18.40
2022-10-12T20:15:16.966Z,19.65
2022-10-12T20:17:43.576Z,20.45
2022-10-12T20:20:10.651Z,24.27
2022-10-12T20:22:37.262Z,23.45
2022-10-12T20:25:09.393Z,43.72
2022-10-12T20:27:36.720Z,46.10
2022-10-12T20:30:05.289Z,25.77
2022-10-12T20:32:34.143Z,20.42
2022-10-12T20:35:01.679Z,20.47
2022-10-12T20:37:28.734Z,23.23
2022-10-12T20:39:55.437Z,19.63
2022-10-12T20:42:22.357Z,21.00
2022-10-12T20:44:49.337Z,18.98
2022-10-12T20:47:16.376Z,22.70
2022-10-12T20:49:44.012Z,20.08
2022-10-12T20:52:11.201Z,19.98
2022-10-12T20:54:37.916Z,19.35
2022-10-12T20:57:05.290Z,18.67
2022-10-12T20:59:34.504Z,18.27
2022-10-12T21:02:01.173Z,19.30
2022-10-12T21:04:30.500Z,18.20
2022-10-12T21:06:58.363Z,18.08
2022-10-12T21:09:25.122Z,18.75
2022-10-12T21:11:51.731Z,16.27
2022-10-12T21:14:18.405Z,16.52
2022-10-12T21:16:45.331Z,15.82
2022-10-12T21:19:15.076Z,16.52
2022-10-12T21:24:09.702Z,17.77
2022-10-12T21:26:36.729Z,17.10
2022-10-12T21:29:03.691Z,15.82
2022-10-12T21:31:32.834Z,20.63
2022-10-12T21:34:01.558Z,19.85
2022-10-12T21:36:29.719Z,20.02
2022-10-12T21:38:56.949Z,17.17
2022-10-12T21:41:25.960Z,18.83
2022-10-12T21:43:53.318Z,18.10
2022-10-12T21:46:29.171Z,19.73
2022-10-12T21:48:56.672Z,19.13
2022-10-12T21:51:24.663Z,18.10
2022-10-12T21:53:51.864Z,19.27
2022-10-12T21:56:21.787Z,18.48
2022-10-12T21:58:50.355Z,19.27
2022-10-12T22:01:22.118Z,19.77
2022-10-12T22:03:53.766Z,19.38
2022-10-12T22:06:21.841Z,19.63
2022-10-12T22:08:57.480Z,21.83
2022-10-12T22:11:25.179Z,20.15
2022-10-12T22:13:53.104Z,20.10
2022-10-12T22:16:19.758Z,19.92
2022-10-12T22:18:46.399Z,18.80
2022-10-12T22:21:18.239Z,19.27
2022-10-12T22:23:45.527Z,19.77
2022-10-12T22:26:15.650Z,20.92
2022-10-12T22:28:42.440Z,21.63
2022-10-12T22:31:11.069Z,23.58
2022-10-12T22:33:38.196Z,22.33
2022-10-12T22:36:06.272Z,22.08
2022-10-12T22:38:33.949Z,24.55
2022-10-12T22:41:07.449Z,25.25
2022-10-12T22:43:34.710Z,24.05
2022-10-12T22:46:01.963Z,24.58
2022-10-12T22:48:28.933Z,27.13
2022-10-12T22:50:55.812Z,30.58
2022-10-12T22:53:24.066Z,29.05
2022-10-12T22:56:05.508Z,29.75
2022-10-12T22:58:32.304Z,29.00
2022-10-12T23:01:07.341Z,30.38
2022-10-12T23:03:35.381Z,29.05
2022-10-12T23:06:02.265Z,30.90
2022-10-12T23:08:29.451Z,30.55
2022-10-12T23:11:01.669Z,29.77
2022-10-12T23:13:28.357Z,27.60
2022-10-12T23:15:54.923Z,30.73
2022-10-12T23:18:21.578Z,28.10
2022-10-12T23:20:48.264Z,26.02
2022-10-12T23:23:14.909Z,25.85
2022-10-12T23:25:41.442Z,25.83
2022-10-12T23:28:08.067Z,27.77
2022-10-12T23:30:36.831Z,26.20
2022-10-12T23:33:03.913Z,22.80
2022-10-12T23:35:30.510Z,23.20
2022-10-12T23:37:57.106Z,21.40
2022-10-12T23:40:23.708Z,19.92
2022-10-12T23:42:50.489Z,20.73
2022-10-12T23:45:17.058Z,21.60
2022-10-12T23:47:43.754Z,21.17
2022-10-12T23:50:10.325Z,22.48
2022-10-12T23:52:37.026Z,21.85
2022-10-12T23:55:03.735Z,18.83
2022-10-12T23:57:46.148Z,19.15
